createdAt,value
2022-12-24T00:01:43.863Z,1.10
2022-12-24T00:04:49.013Z,1.53
2022-12-24T00:07:54.266Z,2.53
2022-12-24T00:10:59.652Z,2.60
2022-12-24T00:14:06.477Z,1.60
2022-12-24T00:17:12.108Z,1.47
2022-12-24T00:20:18.172Z,1.40
2022-12-24T00:23:23.681Z,2.43
2022-12-24T00:26:29.103Z,1.27
2022-12-24T00:29:35.962Z,1.60
2022-12-24T00:32:41.149Z,1.40
2022-12-24T00:35:47.264Z,1.20
2022-12-24T00:38:52.544Z,1.30
2022-12-24T00:41:57.790Z,1.33
2022-12-24T00:45:04.986Z,1.30
2022-12-24T00:48:12.303Z,1.30
2022-12-24T00:51:17.791Z,1.50
2022-12-24T00:54:23.146Z,3.97
2022-12-24T00:57:28.561Z,1.10
2022-12-24T01:00:35.460Z,2.20
2022-12-24T01:03:40.917Z,1.63
2022-12-24T01:06:45.655Z,1.80
2022-12-24T01:09:50.740Z,1.30
2022-12-24T01:12:56.123Z,1.70
2022-12-24T01:16:02.860Z,1.57
2022-12-24T01:19:08.201Z,1.30
2022-12-24T01:22:13.566Z,1.30
2022-12-24T01:25:18.707Z,2.00
2022-12-24T01:28:23.980Z,1.43
2022-12-24T01:31:30.736Z,1.50
2022-12-24T01:34:36.444Z,1.20
2022-12-24T01:37:44.718Z,1.50
2022-12-24T01:41:07.527Z,4.50
2022-12-24T01:44:33.474Z,1.43
2022-12-24T01:47:42.940Z,1.40
2022-12-24T01:50:48.309Z,1.50
2022-12-24T01:53:56.671Z,1.20
2022-12-24T01:57:04.592Z,1.50
2022-12-24T02:00:15.375Z,1.20
2022-12-24T02:03:22.333Z,1.30
2022-12-24T02:06:28.439Z,1.30
2022-12-24T02:09:34.628Z,1.50
2022-12-24T02:12:40.463Z,1.20
2022-12-24T02:15:55.630Z,1.40
2022-12-24T02:19:11.489Z,2.00
2022-12-24T02:22:18.215Z,1.23
2022-12-24T02:25:50.653Z,2.50
2022-12-24T02:29:18.607Z,1.37
2022-12-24T02:32:26.987Z,1.20
2022-12-24T02:35:38.843Z,1.40
2022-12-24T02:38:48.022Z,1.53
2022-12-24T02:42:08.815Z,1.50
2022-12-24T02:45:16.081Z,1.40
2022-12-24T02:48:24.283Z,1.47
2022-12-24T02:51:29.462Z,1.23
2022-12-24T02:54:35.355Z,2.00
2022-12-24T02:57:57.679Z,1.20
2022-12-24T03:01:17.724Z,1.10
2022-12-24T03:04:40.435Z,1.40
2022-12-24T03:07:49.213Z,1.27
2022-12-24T03:10:56.854Z,1.30
2022-12-24T03:14:02.763Z,2.50
2022-12-24T03:17:07.922Z,2.33
2022-12-24T03:20:20.287Z,1.40
2022-12-24T03:23:25.714Z,1.57
2022-12-24T03:26:32.305Z,1.40
2022-12-24T03:29:37.844Z,1.80
2022-12-24T03:32:43.195Z,1.50
2022-12-24T03:35:50.195Z,2.80
2022-12-24T03:38:55.331Z,4.30
2022-12-24T03:42:00.473Z,1.57
2022-12-24T03:45:06.163Z,1.40
2022-12-24T03:48:14.228Z,1.70
2022-12-24T03:51:22.421Z,1.40
2022-12-24T03:54:27.591Z,1.20
2022-12-24T03:57:32.885Z,1.20
2022-12-24T04:00:38.218Z,1.53
2022-12-24T04:03:43.408Z,1.33
2022-12-24T04:06:49.977Z,1.40
2022-12-24T04:09:55.246Z,1.47
2022-12-24T04:13:00.738Z,1.57
2022-12-24T04:16:08.318Z,1.40
2022-12-24T04:19:13.498Z,1.30
2022-12-24T04:22:20.364Z,2.80
2022-12-24T04:25:25.552Z,1.67
2022-12-24T04:28:31.153Z,1.93
2022-12-24T04:31:36.370Z,1.40
2022-12-24T04:34:41.542Z,1.53
2022-12-24T04:37:48.159Z,1.50
2022-12-24T04:41:00.644Z,1.50
2022-12-24T04:44:05.832Z,1.60
2022-12-24T04:47:13.336Z,1.30
2022-12-24T04:50:18.660Z,1.47
2022-12-24T04:53:25.149Z,1.50
2022-12-24T04:56:32.481Z,1.43
2022-12-24T04:59:37.848Z,1.10
2022-12-24T05:02:43.205Z,1.37
2022-12-24T05:05:48.742Z,1.60
2022-12-24T05:08:57.869Z,1.27
2022-12-24T05:12:03.120Z,1.30
2022-12-24T05:15:09.610Z,1.83
2022-12-24T05:18:14.784Z,1.20
2022-12-24T05:21:21.801Z,1.30
2022-12-24T05:24:46.071Z,2.53
2022-12-24T05:27:51.667Z,2.17
2022-12-24T05:30:57.047Z,1.60
2022-12-24T05:34:03.329Z,1.40
2022-12-24T05:37:08.610Z,2.83
2022-12-24T05:40:16.477Z,1.30
2022-12-24T05:43:21.661Z,1.30
2022-12-24T05:46:27.462Z,1.43
2022-12-24T05:49:32.642Z,1.20
2022-12-24T05:52:37.854Z,1.30
2022-12-24T05:55:44.687Z,1.40
2022-12-24T05:58:51.035Z,1.30
2022-12-24T06:01:56.273Z,1.30
2022-12-24T06:05:01.580Z,1.30
2022-12-24T06:08:07.087Z,1.30
2022-12-24T06:11:15.462Z,1.43
2022-12-24T06:14:20.513Z,1.53
2022-12-24T06:17:25.814Z,1.20
2022-12-24T06:20:31.097Z,1.63
2022-12-24T06:23:37.604Z,1.53
2022-12-24T06:26:44.652Z,1.40
2022-12-24T06:29:49.892Z,1.40
2022-12-24T06:32:55.069Z,1.30
2022-12-24T06:36:01.439Z,3.40
2022-12-24T06:39:06.704Z,1.27
2022-12-24T06:42:13.822Z,1.33
2022-12-24T06:45:19.406Z,1.63
2022-12-24T06:48:24.533Z,1.70
2022-12-24T06:51:29.678Z,1.47
2022-12-24T06:54:34.889Z,1.40
2022-12-24T06:57:41.414Z,3.33
2022-12-24T07:00:46.561Z,1.50
2022-12-24T07:03:51.863Z,1.50
2022-12-24T07:06:57.086Z,2.03
2022-12-24T07:10:02.290Z,3.10
2022-12-24T07:13:08.918Z,1.40
2022-12-24T07:16:14.661Z,1.80
2022-12-24T07:19:20.157Z,1.50
2022-12-24T07:22:25.603Z,1.97
2022-12-24T07:25:30.461Z,1.40
2022-12-24T07:28:37.061Z,1.93
2022-12-24T07:31:42.270Z,2.00
2022-12-24T07:34:47.737Z,1.70
2022-12-24T07:37:52.967Z,1.70
2022-12-24T07:40:58.305Z,1.60
2022-12-24T07:44:05.490Z,1.90
2022-12-24T07:47:11.066Z,2.20
2022-12-24T07:50:16.204Z,1.93
2022-12-24T07:53:21.754Z,3.63
2022-12-24T07:56:28.114Z,1.93
2022-12-24T07:59:34.714Z,2.40
2022-12-24T08:02:40.434Z,2.47
2022-12-24T08:05:45.745Z,2.17
2022-12-24T08:08:51.162Z,2.20
2022-12-24T08:11:57.060Z,3.37
2022-12-24T08:15:03.699Z,2.53
2022-12-24T08:18:10.541Z,2.27
2022-12-24T08:21:15.786Z,2.33
2022-12-24T08:24:22.477Z,2.60
2022-12-24T08:27:27.928Z,2.00
2022-12-24T08:30:34.452Z,2.40
2022-12-24T08:33:39.391Z,2.53
2022-12-24T08:36:45.838Z,3.00
2022-12-24T08:39:50.751Z,2.33
2022-12-24T08:42:56.047Z,2.37
2022-12-24T08:46:06.931Z,2.90
2022-12-24T08:49:12.915Z,4.40
2022-12-24T08:52:18.437Z,3.40
2022-12-24T08:55:23.597Z,3.30
2022-12-24T08:58:28.506Z,3.27
2022-12-24T09:01:35.476Z,3.20
2022-12-24T09:04:43.480Z,5.63
2022-12-24T09:07:48.618Z,3.10
2022-12-24T09:10:53.932Z,5.37
2022-12-24T09:13:59.008Z,3.30
2022-12-24T09:17:05.688Z,4.40
2022-12-24T09:20:13.173Z,3.67
2022-12-24T09:23:18.457Z,3.37
2022-12-24T09:26:25.538Z,5.03
2022-12-24T09:29:31.503Z,3.27
2022-12-24T09:32:37.867Z,3.00
2022-12-24T09:35:44.030Z,2.97
2022-12-24T09:38:49.834Z,3.30
2022-12-24T09:42:01.382Z,4.50
2022-12-24T09:45:11.635Z,5.37
2022-12-24T09:48:20.383Z,4.07
2022-12-24T09:51:29.709Z,3.07
2022-12-24T09:54:37.997Z,4.87
2022-12-24T09:57:43.888Z,3.00
2022-12-24T10:00:50.304Z,2.70
2022-12-24T10:03:57.087Z,2.77
2022-12-24T10:07:10.611Z,4.87
2022-12-24T10:10:22.531Z,2.73
2022-12-24T10:13:37.778Z,2.60
2022-12-24T10:16:49.701Z,7.50
2022-12-24T10:20:04.537Z,2.77
2022-12-24T10:23:17.056Z,3.17
2022-12-24T10:26:26.526Z,2.10
2022-12-24T10:29:33.877Z,2.00
2022-12-24T10:32:39.642Z,2.03
2022-12-24T10:35:51.425Z,2.00
2022-12-24T10:38:57.017Z,2.50
2022-12-24T10:42:02.996Z,2.57
2022-12-24T10:45:11.559Z,1.93
2022-12-24T10:48:24.524Z,2.00
2022-12-24T10:51:38.180Z,2.20
2022-12-24T10:55:09.593Z,1.97
2022-12-24T10:58:18.046Z,1.63
2022-12-24T11:01:43.705Z,1.80
2022-12-24T11:04:49.966Z,6.03
2022-12-24T11:08:03.105Z,3.10
2022-12-24T11:11:10.365Z,1.70
2022-12-24T11:14:19.114Z,1.70
2022-12-24T11:17:25.591Z,1.90
2022-12-24T11:20:32.107Z,1.60
2022-12-24T11:23:38.865Z,1.50
2022-12-24T11:26:45.703Z,1.87
2022-12-24T11:29:50.940Z,2.13
2022-12-24T11:33:19.532Z,2.30
2022-12-24T11:36:27.688Z,3.30
2022-12-24T11:39:41.476Z,3.17
2022-12-24T11:42:46.815Z,2.20
2022-12-24T11:45:54.060Z,2.13
2022-12-24T11:49:08.738Z,2.47
2022-12-24T11:52:31.544Z,3.20
2022-12-24T11:55:44.174Z,2.93
2022-12-24T11:58:52.596Z,3.13
2022-12-24T12:01:59.964Z,3.23
2022-12-24T12:05:10.460Z,3.37
2022-12-24T12:08:19.310Z,2.40
2022-12-24T12:11:27.605Z,4.13
2022-12-24T12:14:37.042Z,2.23
2022-12-24T12:17:47.089Z,2.30
2022-12-24T12:20:56.022Z,2.43
2022-12-24T12:24:06.385Z,2.40
2022-12-24T12:27:21.500Z,2.83
2022-12-24T12:30:27.734Z,2.77
2022-12-24T12:33:38.940Z,2.57
2022-12-24T12:36:48.998Z,2.30
2022-12-24T12:40:02.674Z,2.77
2022-12-24T12:43:15.711Z,2.50
2022-12-24T12:46:25.810Z,2.67
2022-12-24T12:49:39.211Z,2.67
2022-12-24T12:53:04.182Z,2.80
2022-12-24T12:56:17.354Z,2.70
2022-12-24T12:59:32.655Z,2.70
2022-12-24T13:02:58.187Z,2.90
2022-12-24T13:06:36.359Z,2.80
2022-12-24T13:10:24.195Z,3.40
2022-12-24T13:13:59.176Z,5.87
2022-12-24T13:17:37.979Z,4.67
2022-12-24T13:20:49.733Z,7.57
2022-12-24T13:24:07.899Z,3.80
2022-12-24T13:27:20.201Z,3.63
2022-12-24T13:30:38.118Z,3.73
2022-12-24T13:33:51.484Z,4.93
2022-12-24T13:37:05.901Z,4.23
2022-12-24T13:40:25.636Z,7.20
2022-12-24T13:44:03.375Z,7.30
2022-12-24T13:47:32.051Z,4.93
2022-12-24T13:50:40.479Z,7.47
2022-12-24T13:53:49.898Z,6.73
2022-12-24T13:56:55.327Z,9.20
2022-12-24T14:00:04.731Z,8.33
2022-12-24T14:03:23.561Z,7.67
2022-12-24T14:06:33.853Z,8.90
2022-12-24T14:09:39.433Z,9.90
2022-12-24T14:12:50.793Z,5.37
2022-12-24T14:16:06.039Z,5.93
2022-12-24T14:19:16.408Z,8.40
2022-12-24T14:22:29.425Z,5.07
2022-12-24T14:25:34.539Z,6.20
2022-12-24T14:28:43.871Z,6.63
2022-12-24T14:31:53.774Z,12.20
2022-12-24T14:35:08.927Z,7.33
2022-12-24T14:38:19.091Z,9.07
2022-12-24T14:41:34.751Z,5.70
2022-12-24T14:44:45.405Z,5.80
2022-12-24T14:47:57.432Z,5.67
2022-12-24T14:51:09.845Z,4.23
2022-12-24T14:54:39.735Z,4.40
2022-12-24T14:57:45.184Z,5.73
2022-12-24T15:00:50.872Z,5.73
2022-12-24T15:04:04.538Z,4.20
2022-12-24T15:07:12.128Z,6.00
2022-12-24T15:10:31.047Z,6.10
2022-12-24T15:13:39.269Z,4.77
2022-12-24T15:16:54.723Z,4.33
2022-12-24T15:20:04.218Z,6.37
2022-12-24T15:23:20.992Z,5.57
2022-12-24T15:26:29.556Z,4.13
2022-12-24T15:29:40.463Z,4.87
2022-12-24T15:32:45.305Z,4.13
2022-12-24T15:35:54.163Z,4.40
2022-12-24T15:39:00.946Z,5.10
2022-12-24T15:42:18.686Z,7.53
2022-12-24T15:45:28.483Z,6.40
2022-12-24T15:48:36.167Z,8.57
2022-12-24T15:51:41.671Z,5.87
2022-12-24T15:54:52.135Z,7.47
2022-12-24T15:58:03.462Z,7.07
2022-12-24T16:01:29.511Z,4.13
2022-12-24T16:04:34.818Z,4.40
2022-12-24T16:08:05.563Z,4.73
2022-12-24T16:11:19.383Z,4.53
2022-12-24T16:14:26.335Z,5.90
2022-12-24T16:17:33.887Z,7.93
2022-12-24T16:20:39.024Z,6.73
2022-12-24T16:23:48.914Z,8.53
2022-12-24T16:26:54.735Z,7.33
2022-12-24T16:30:01.951Z,7.10
2022-12-24T16:33:07.650Z,6.77
2022-12-24T16:36:14.680Z,8.43
2022-12-24T16:39:28.539Z,11.77
2022-12-24T16:42:51.370Z,10.50
2022-12-24T16:46:02.728Z,12.93
2022-12-24T16:49:07.994Z,14.70
2022-12-24T16:52:19.190Z,11.30
2022-12-24T16:55:24.491Z,14.03
2022-12-24T16:58:29.676Z,11.67
2022-12-24T17:01:36.633Z,12.53
2022-12-24T17:04:42.224Z,16.20
2022-12-24T17:07:47.674Z,14.40
2022-12-24T17:10:53.335Z,17.73
2022-12-24T17:13:58.621Z,16.70
2022-12-24T17:17:05.257Z,10.47
2022-12-24T17:20:16.708Z,10.63
2022-12-24T17:23:24.112Z,11.13
2022-12-24T17:26:29.521Z,9.43
2022-12-24T17:29:34.791Z,7.70
2022-12-24T17:32:41.631Z,7.40
2022-12-24T17:35:48.494Z,8.70
2022-12-24T17:38:53.722Z,9.50
2022-12-24T17:41:58.865Z,8.23
2022-12-24T17:45:04.141Z,13.60
2022-12-24T17:48:12.321Z,6.27
2022-12-24T17:51:21.073Z,9.23
2022-12-24T17:54:26.062Z,11.23
2022-12-24T17:57:31.703Z,10.23
2022-12-24T18:00:36.955Z,13.13
2022-12-24T18:03:43.588Z,9.60
2022-12-24T18:06:49.831Z,10.27
2022-12-24T18:09:55.287Z,8.33
2022-12-24T18:13:00.369Z,10.77
2022-12-24T18:16:05.708Z,9.07
2022-12-24T18:19:14.916Z,11.00
2022-12-24T18:22:21.524Z,10.97
2022-12-24T18:25:26.769Z,10.90
2022-12-24T18:28:34.378Z,8.57
2022-12-24T18:31:39.747Z,7.70
2022-12-24T18:34:47.190Z,9.80
2022-12-24T18:37:52.368Z,10.23
2022-12-24T18:40:57.549Z,7.97
2022-12-24T18:44:02.708Z,6.93
2022-12-24T18:47:07.961Z,8.10
2022-12-24T18:50:15.393Z,5.87
2022-12-24T18:53:20.544Z,5.90
2022-12-24T18:56:26.987Z,9.40
2022-12-24T18:59:32.699Z,6.03
2022-12-24T19:02:37.902Z,6.57
2022-12-24T19:05:44.533Z,7.03
2022-12-24T19:09:00.120Z,6.83
2022-12-24T19:12:06.892Z,10.00
2022-12-24T19:15:12.979Z,6.77
2022-12-24T19:18:19.623Z,9.87
2022-12-24T19:21:30.377Z,4.73
2022-12-24T19:24:35.604Z,5.17
2022-12-24T19:27:40.413Z,6.60
2022-12-24T19:30:45.772Z,4.67
2022-12-24T19:33:53.228Z,4.90
2022-12-24T19:37:00.833Z,4.97
2022-12-24T19:40:06.794Z,8.23
2022-12-24T19:43:13.111Z,5.13
2022-12-24T19:46:19.858Z,5.70
2022-12-24T19:49:25.491Z,8.37
2022-12-24T19:52:32.157Z,4.70
2022-12-24T19:55:37.405Z,4.80
2022-12-24T19:58:42.568Z,4.60
2022-12-24T20:01:48.547Z,5.47
2022-12-24T20:04:53.814Z,5.27
2022-12-24T20:08:00.561Z,4.90
2022-12-24T20:11:06.956Z,5.73
2022-12-24T20:14:13.775Z,4.03
2022-12-24T20:17:20.133Z,4.10
2022-12-24T20:20:25.293Z,4.37
2022-12-24T20:23:31.959Z,5.23
2022-12-24T20:26:37.654Z,4.10
2022-12-24T20:29:42.704Z,4.17
2022-12-24T20:32:48.082Z,3.97
2022-12-24T20:35:53.161Z,4.80
2022-12-24T20:39:00.361Z,3.80
2022-12-24T20:42:05.397Z,3.87
2022-12-24T20:45:11.897Z,3.80
2022-12-24T20:48:17.526Z,2.93
2022-12-24T20:51:25.551Z,3.67
2022-12-24T20:54:32.233Z,3.27
2022-12-24T20:57:37.280Z,3.50
2022-12-24T21:00:42.470Z,3.43
2022-12-24T21:03:47.849Z,3.90
2022-12-24T21:06:52.660Z,4.03
2022-12-24T21:09:59.813Z,4.07
2022-12-24T21:13:04.754Z,3.67
2022-12-24T21:16:10.058Z,3.23
2022-12-24T21:19:17.505Z,4.07
2022-12-24T21:22:25.269Z,3.90
2022-12-24T21:25:34.112Z,4.00
2022-12-24T21:28:39.960Z,3.50
2022-12-24T21:31:46.241Z,3.80
2022-12-24T21:34:52.643Z,3.77
2022-12-24T21:37:57.805Z,3.40
2022-12-24T21:41:06.379Z,3.90
2022-12-24T21:44:13.270Z,4.70
2022-12-24T21:47:18.367Z,3.87
2022-12-24T21:50:52.880Z,2.97
2022-12-24T21:54:16.018Z,4.37
2022-12-24T21:57:40.271Z,4.17
2022-12-24T22:00:45.730Z,4.10
2022-12-24T22:03:53.855Z,7.47
2022-12-24T22:07:16.904Z,5.30
2022-12-24T22:10:39.772Z,4.37
2022-12-24T22:13:46.341Z,3.53
2022-12-24T22:16:51.531Z,4.23
2022-12-24T22:19:58.954Z,4.57
2022-12-24T22:23:04.074Z,4.10
2022-12-24T22:26:12.925Z,4.33
2022-12-24T22:29:19.489Z,3.97
2022-12-24T22:32:24.688Z,6.67
2022-12-24T22:35:29.812Z,4.03
2022-12-24T22:38:34.965Z,4.10
2022-12-24T22:41:40.059Z,4.20
2022-12-24T22:44:47.020Z,4.40
2022-12-24T22:47:52.847Z,4.17
2022-12-24T22:50:57.992Z,4.20
2022-12-24T22:54:03.129Z,3.93
2022-12-24T22:57:08.310Z,3.77
2022-12-24T23:00:20.459Z,4.10
2022-12-24T23:03:26.170Z,4.40
2022-12-24T23:06:31.687Z,4.20
2022-12-24T23:09:37.503Z,6.70
2022-12-24T23:12:59.921Z,4.30
2022-12-24T23:16:08.051Z,4.60
2022-12-24T23:19:13.282Z,5.50
2022-12-24T23:22:18.529Z,4.77
2022-12-24T23:25:23.919Z,4.83
2022-12-24T23:28:29.428Z,7.33
2022-12-24T23:31:37.786Z,5.60
2022-12-24T23:34:43.255Z,5.13
2022-12-24T23:37:48.335Z,6.07
2022-12-24T23:40:56.942Z,4.97
2022-12-24T23:44:02.146Z,5.47
2022-12-24T23:47:09.242Z,7.53
2022-12-24T23:50:15.322Z,5.83
2022-12-24T23:53:20.945Z,5.00
2022-12-24T23:56:27.347Z,4.87
2022-12-24T23:59:35.115Z,4.93
